sensor_id;sensor_type;location;lat;lon;timestamp;P1;durP1;ratioP1;P2;durP2;ratioP2
62256;SDS011;48240;52.962;5.790;2022-09-12T04:32:01;6.00;;;3.58;;
62256;SDS011;48240;52.962;5.790;2022-09-12T04:34:29;4.07;;;3.30;;
62256;SDS011;48240;52.962;5.790;2022-09-12T04:36:56;5.22;;;4.15;;
62256;SDS011;48240;52.962;5.790;2022-09-12T04:39:22;4.97;;;3.08;;
62256;SDS011;48240;52.962;5.790;2022-09-12T04:41:48;5.20;;;4.03;;
62256;SDS011;48240;52.962;5.790;2022-09-12T04:44:14;4.97;;;3.63;;
62256;SDS011;48240;52.962;5.790;2022-09-12T04:46:41;4.20;;;3.03;;
62256;SDS011;48240;52.962;5.790;2022-09-12T04:49:09;5.38;;;4.40;;
62256;SDS011;48240;52.962;5.790;2022-09-12T04:51:36;4.68;;;3.65;;
62256;SDS011;48240;52.962;5.790;2022-09-12T04:54:03;4.05;;;3.70;;
62256;SDS011;48240;52.962;5.790;2022-09-12T04:56:30;4.90;;;4.20;;
62256;SDS011;48240;52.962;5.790;2022-09-12T04:58:56;4.00;;;3.50;;
62256;SDS011;48240;52.962;5.790;2022-09-12T05:01:23;4.30;;;3.47;;
62256;SDS011;48240;52.962;5.790;2022-09-12T05:03:49;4.65;;;3.80;;
62256;SDS011;48240;52.962;5.790;2022-09-12T05:06:17;5.43;;;4.20;;
62256;SDS011;48240;52.962;5.790;2022-09-12T05:08:44;4.43;;;4.03;;
62256;SDS011;48240;52.962;5.790;2022-09-12T05:11:11;4.85;;;4.00;;
62256;SDS011;48240;52.962;5.790;2022-09-12T05:13:37;4.38;;;3.97;;
62256;SDS011;48240;52.962;5.790;2022-09-12T05:16:04;7.53;;;4.05;;
62256;SDS011;48240;52.962;5.790;2022-09-12T05:18:31;7.32;;;4.10;;
62256;SDS011;48240;52.962;5.790;2022-09-12T05:20:58;5.85;;;3.97;;
62256;SDS011;48240;52.962;5.790;2022-09-12T05:23:25;5.07;;;3.60;;
62256;SDS011;48240;52.962;5.790;2022-09-12T05:25:52;9.57;;;5.60;;
62256;SDS011;48240;52.962;5.790;2022-09-12T05:28:18;4.07;;;3.65;;
62256;SDS011;48240;52.962;5.790;2022-09-12T05:30:45;6.30;;;5.40;;
62256;SDS011;48240;52.962;5.790;2022-09-12T05:33:12;6.50;;;4.80;;
62256;SDS011;48240;52.962;5.790;2022-09-12T05:35:38;6.93;;;5.22;;
62256;SDS011;48240;52.962;5.790;2022-09-12T05:38:04;8.05;;;5.55;;
62256;SDS011;48240;52.962;5.790;2022-09-12T05:40:31;6.82;;;4.93;;
62256;SDS011;48240;52.962;5.790;2022-09-12T05:42:57;6.28;;;4.45;;
62256;SDS011;48240;52.962;5.790;2022-09-12T05:45:23;5.70;;;5.20;;
62256;SDS011;48240;52.962;5.790;2022-09-12T05:47:51;7.30;;;5.15;;
62256;SDS011;48240;52.962;5.790;2022-09-12T05:50:18;7.32;;;4.85;;
62256;SDS011;48240;52.962;5.790;2022-09-12T05:52:44;6.72;;;5.43;;
62256;SDS011;48240;52.962;5.790;2022-09-12T05:55:11;7.43;;;5.10;;
62256;SDS011;48240;52.962;5.790;2022-09-12T05:57:37;7.53;;;5.50;;
62256;SDS011;48240;52.962;5.790;2022-09-12T06:00:03;5.72;;;4.40;;
62256;SDS011;48240;52.962;5.790;2022-09-12T06:02:30;7.90;;;5.60;;
62256;SDS011;48240;52.962;5.790;2022-09-12T06:04:56;5.93;;;4.70;;
62256;SDS011;48240;52.962;5.790;2022-09-12T06:07:22;8.43;;;5.53;;
62256;SDS011;48240;52.962;5.790;2022-09-12T06:09:49;7.60;;;6.03;;
62256;SDS011;48240;52.962;5.790;2022-09-12T06:12:15;9.73;;;5.85;;
62256;SDS011;48240;52.962;5.790;2022-09-12T06:14:41;10.80;;;6.10;;
62256;SDS011;48240;52.962;5.790;2022-09-12T06:17:07;8.98;;;5.20;;
62256;SDS011;48240;52.962;5.790;2022-09-12T06:19:33;6.68;;;4.95;;
62256;SDS011;48240;52.962;5.790;2022-09-12T06:21:59;4.72;;;4.20;;
62256;SDS011;48240;52.962;5.790;2022-09-12T06:24:25;7.28;;;4.50;;
62256;SDS011;48240;52.962;5.790;2022-09-12T06:26:52;6.32;;;4.63;;
62256;SDS011;48240;52.962;5.790;2022-09-12T06:29:18;7.60;;;5.38;;
62256;SDS011;48240;52.962;5.790;2022-09-12T06:31:44;7.43;;;4.50;;
62256;SDS011;48240;52.962;5.790;2022-09-12T06:34:11;7.07;;;5.10;;
62256;SDS011;48240;52.962;5.790;2022-09-12T06:36:41;8.27;;;5.30;;
62256;SDS011;48240;52.962;5.790;2022-09-12T06:39:12;6.70;;;4.82;;
62256;SDS011;48240;52.962;5.790;2022-09-12T06:41:38;7.80;;;5.40;;
62256;SDS011;48240;52.962;5.790;2022-09-12T06:44:04;8.65;;;5.43;;
62256;SDS011;48240;52.962;5.790;2022-09-12T06:46:31;6.28;;;5.10;;
62256;SDS011;48240;52.962;5.790;2022-09-12T06:48:57;5.68;;;5.07;;
62256;SDS011;48240;52.962;5.790;2022-09-12T06:51:24;8.50;;;5.63;;
62256;SDS011;48240;52.962;5.790;2022-09-12T06:53:53;7.18;;;4.80;;
62256;SDS011;48240;52.962;5.790;2022-09-12T06:56:20;8.88;;;6.35;;
62256;SDS011;48240;52.962;5.790;2022-09-12T06:58:47;6.47;;;5.30;;
62256;SDS011;48240;52.962;5.790;2022-09-12T07:01:14;7.75;;;5.03;;
62256;SDS011;48240;52.962;5.790;2022-09-12T07:03:41;6.18;;;5.57;;
62256;SDS011;48240;52.962;5.790;2022-09-12T07:06:09;7.20;;;5.63;;
62256;SDS011;48240;52.962;5.790;2022-09-12T07:08:35;7.43;;;5.78;;
62256;SDS011;48240;52.962;5.790;2022-09-12T07:11:17;6.35;;;4.70;;
62256;SDS011;48240;52.962;5.790;2022-09-12T07:13:45;7.28;;;5.80;;
62256;SDS011;48240;52.962;5.790;2022-09-12T07:16:11;13.38;;;7.90;;
62256;SDS011;48240;52.962;5.790;2022-09-12T07:18:38;6.28;;;5.22;;
62256;SDS011;48240;52.962;5.790;2022-09-12T07:21:05;8.57;;;5.85;;
62256;SDS011;48240;52.962;5.790;2022-09-12T07:23:32;7.28;;;5.97;;
62256;SDS011;48240;52.962;5.790;2022-09-12T07:25:58;8.32;;;6.32;;
62256;SDS011;48240;52.962;5.790;2022-09-12T07:28:25;10.95;;;7.72;;
62256;SDS011;48240;52.962;5.790;2022-09-12T07:30:52;8.23;;;6.70;;
62256;SDS011;48240;52.962;5.790;2022-09-12T07:33:19;10.90;;;6.13;;
62256;SDS011;48240;52.962;5.790;2022-09-12T07:35:45;8.23;;;6.28;;
62256;SDS011;48240;52.962;5.790;2022-09-12T07:38:12;8.63;;;6.88;;
62256;SDS011;48240;52.962;5.790;2022-09-12T07:40:38;10.23;;;7.78;;
62256;SDS011;48240;52.962;5.790;2022-09-12T07:43:04;8.30;;;6.30;;
62256;SDS011;48240;52.962;5.790;2022-09-12T07:45:30;10.80;;;7.95;;
62256;SDS011;48240;52.962;5.790;2022-09-12T07:47:56;11.50;;;8.18;;
62256;SDS011;48240;52.962;5.790;2022-09-12T07:50:22;7.25;;;6.40;;
62256;SDS011;48240;52.962;5.790;2022-09-12T07:52:48;7.65;;;5.90;;
62256;SDS011;48240;52.962;5.790;2022-09-12T07:55:15;12.55;;;8.65;;
62256;SDS011;48240;52.962;5.790;2022-09-12T07:57:41;8.38;;;6.38;;
62256;SDS011;48240;52.962;5.790;2022-09-12T08:00:07;9.93;;;7.32;;
62256;SDS011;48240;52.962;5.790;2022-09-12T08:02:34;10.88;;;6.60;;
62256;SDS011;48240;52.962;5.790;2022-09-12T08:05:01;8.52;;;6.35;;
62256;SDS011;48240;52.962;5.790;2022-09-12T08:07:27;8.98;;;6.90;;
62256;SDS011;48240;52.962;5.790;2022-09-12T08:09:53;9.25;;;6.97;;
62256;SDS011;48240;52.962;5.790;2022-09-12T08:12:19;9.15;;;6.30;;
62256;SDS011;48240;52.962;5.790;2022-09-12T08:14:45;8.80;;;6.35;;
62256;SDS011;48240;52.962;5.790;2022-09-12T08:17:12;8.50;;;6.28;;
62256;SDS011;48240;52.962;5.790;2022-09-12T08:19:38;14.57;;;8.80;;
62256;SDS011;48240;52.962;5.790;2022-09-12T08:22:04;10.20;;;6.82;;
62256;SDS011;48240;52.962;5.790;2022-09-12T08:24:30;8.57;;;6.93;;
62256;SDS011;48240;52.962;5.790;2022-09-12T08:26:56;12.95;;;8.35;;
62256;SDS011;48240;52.962;5.790;2022-09-12T08:29:22;8.88;;;7.18;;
62256;SDS011;48240;52.962;5.790;2022-09-12T08:31:49;12.98;;;7.68;;
62256;SDS011;48240;52.962;5.790;2022-09-12T08:34:15;11.38;;;7.70;;
62256;SDS011;48240;52.962;5.790;2022-09-12T08:36:49;13.00;;;8.13;;
62256;SDS011;48240;52.962;5.790;2022-09-12T08:39:15;11.65;;;8.75;;
62256;SDS011;48240;52.962;5.790;2022-09-12T08:41:48;12.00;;;8.45;;
62256;SDS011;48240;52.962;5.790;2022-09-12T08:49:26;15.60;;;10.13;;
62256;SDS011;48240;52.962;5.790;2022-09-12T08:51:53;13.65;;;9.52;;
62256;SDS011;48240;52.962;5.790;2022-09-12T08:54:22;16.13;;;9.32;;
62256;SDS011;48240;52.962;5.790;2022-09-12T08:56:50;14.65;;;9.35;;
62256;SDS011;48240;52.962;5.790;2022-09-12T08:59:18;12.25;;;8.85;;
62256;SDS011;48240;52.962;5.790;2022-09-12T09:01:45;12.27;;;9.05;;
62256;SDS011;48240;52.962;5.790;2022-09-12T09:04:34;12.07;;;9.82;;
62256;SDS011;48240;52.962;5.790;2022-09-12T09:12:20;12.80;;;8.50;;
62256;SDS011;48240;52.962;5.790;2022-09-12T09:17:40;12.80;;;8.85;;
62256;SDS011;48240;52.962;5.790;2022-09-12T09:20:27;10.20;;;8.02;;
62256;SDS011;48240;52.962;5.790;2022-09-12T09:28:09;10.77;;;7.88;;
62256;SDS011;48240;52.962;5.790;2022-09-12T09:30:36;9.90;;;7.90;;
62256;SDS011;48240;52.962;5.790;2022-09-12T09:33:03;11.65;;;8.63;;
62256;SDS011;48240;52.962;5.790;2022-09-12T09:40:52;15.02;;;10.52;;
62256;SDS011;48240;52.962;5.790;2022-09-12T09:43:21;18.08;;;11.30;;
62256;SDS011;48240;52.962;5.790;2022-09-12T09:45:48;17.48;;;11.82;;
62256;SDS011;48240;52.962;5.790;2022-09-12T09:48:16;17.83;;;12.05;;
62256;SDS011;48240;52.962;5.790;2022-09-12T09:50:42;16.42;;;10.90;;
62256;SDS011;48240;52.962;5.790;2022-09-12T09:53:14;17.45;;;11.90;;
62256;SDS011;48240;52.962;5.790;2022-09-12T09:55:42;18.67;;;12.40;;
62256;SDS011;48240;52.962;5.790;2022-09-12T09:58:09;19.40;;;11.38;;
62256;SDS011;48240;52.962;5.790;2022-09-12T10:00:35;18.08;;;12.00;;
62256;SDS011;48240;52.962;5.790;2022-09-12T10:03:23;18.38;;;11.05;;
62256;SDS011;48240;52.962;5.790;2022-09-12T10:05:54;13.48;;;9.50;;
62256;SDS011;48240;52.962;5.790;2022-09-12T10:10:58;16.83;;;11.05;;
62256;SDS011;48240;52.962;5.790;2022-09-12T10:13:35;17.58;;;11.70;;
62256;SDS011;48240;52.962;5.790;2022-09-12T10:16:03;18.65;;;11.43;;
62256;SDS011;48240;52.962;5.790;2022-09-12T10:21:10;16.92;;;10.10;;
62256;SDS011;48240;52.962;5.790;2022-09-12T10:23:37;16.02;;;10.55;;
62256;SDS011;48240;52.962;5.790;2022-09-12T10:26:14;16.40;;;10.90;;
62256;SDS011;48240;52.962;5.790;2022-09-12T10:31:08;12.65;;;9.20;;
62256;SDS011;48240;52.962;5.790;2022-09-12T10:33:45;14.55;;;9.00;;
62256;SDS011;48240;52.962;5.790;2022-09-12T10:36:17;13.38;;;8.95;;
62256;SDS011;48240;52.962;5.790;2022-09-12T10:38:48;13.20;;;9.32;;
62256;SDS011;48240;52.962;5.790;2022-09-12T10:41:14;10.55;;;8.15;;
62256;SDS011;48240;52.962;5.790;2022-09-12T10:43:40;14.10;;;8.88;;
62256;SDS011;48240;52.962;5.790;2022-09-12T10:48:48;14.40;;;8.55;;
62256;SDS011;48240;52.962;5.790;2022-09-12T10:53:59;11.43;;;7.63;;
62256;SDS011;48240;52.962;5.790;2022-09-12T10:56:27;12.27;;;8.07;;
62256;SDS011;48240;52.962;5.790;2022-09-12T10:59:09;11.40;;;7.30;;
62256;SDS011;48240;52.962;5.790;2022-09-12T11:01:42;13.05;;;8.25;;
62256;SDS011;48240;52.962;5.790;2022-09-12T11:09:41;10.95;;;7.40;;
62256;SDS011;48240;52.962;5.790;2022-09-12T11:22:51;10.75;;;7.50;;
62256;SDS011;48240;52.962;5.790;2022-09-12T11:25:58;10.32;;;7.72;;
62256;SDS011;48240;52.962;5.790;2022-09-12T11:33:45;12.77;;;7.03;;
62256;SDS011;48240;52.962;5.790;2022-09-12T11:41:44;11.20;;;6.68;;
62256;SDS011;48240;52.962;5.790;2022-09-12T11:46:57;10.02;;;6.75;;
62256;SDS011;48240;52.962;5.790;2022-09-12T11:49:28;7.38;;;6.00;;
62256;SDS011;48240;52.962;5.790;2022-09-12T11:54:32;7.07;;;6.20;;
62256;SDS011;48240;52.962;5.790;2022-09-12T11:59:42;7.13;;;5.97;;
62256;SDS011;48240;52.962;5.790;2022-09-12T12:02:18;8.00;;;6.05;;
62256;SDS011;48240;52.962;5.790;2022-09-12T12:07:44;9.35;;;5.93;;
62256;SDS011;48240;52.962;5.790;2022-09-12T12:12:48;6.68;;;5.43;;
62256;SDS011;48240;52.962;5.790;2022-09-12T12:15:15;6.28;;;4.90;;
62256;SDS011;48240;52.962;5.790;2022-09-12T12:17:41;6.80;;;5.07;;
62256;SDS011;48240;52.962;5.790;2022-09-12T12:20:14;6.75;;;5.22;;
62256;SDS011;48240;52.962;5.790;2022-09-12T12:22:51;6.38;;;4.90;;
62256;SDS011;48240;52.962;5.790;2022-09-12T12:38:01;6.18;;;4.43;;
62256;SDS011;48240;52.962;5.790;2022-09-12T12:40:28;5.13;;;4.50;;
62256;SDS011;48240;52.962;5.790;2022-09-12T12:52:52;5.63;;;4.38;;
62256;SDS011;48240;52.962;5.790;2022-09-12T12:55:22;5.90;;;4.28;;
62256;SDS011;48240;52.962;5.790;2022-09-12T12:57:56;5.68;;;4.50;;
62256;SDS011;48240;52.962;5.790;2022-09-12T13:00:33;6.45;;;4.45;;
62256;SDS011;48240;52.962;5.790;2022-09-12T13:03:01;5.60;;;4.35;;
62256;SDS011;48240;52.962;5.790;2022-09-12T13:08:09;6.35;;;4.40;;
62256;SDS011;48240;52.962;5.790;2022-09-12T13:10:35;5.93;;;4.40;;
62256;SDS011;48240;52.962;5.790;2022-09-12T13:13:02;8.80;;;4.40;;
62256;SDS011;48240;52.962;5.790;2022-09-12T13:18:05;4.50;;;3.80;;
62256;SDS011;48240;52.962;5.790;2022-09-12T13:20:32;6.93;;;4.10;;
62256;SDS011;48240;52.962;5.790;2022-09-12T13:23:02;6.35;;;4.20;;
62256;SDS011;48240;52.962;5.790;2022-09-12T13:25:34;6.28;;;4.35;;
62256;SDS011;48240;52.962;5.790;2022-09-12T13:30:34;7.57;;;4.35;;
62256;SDS011;48240;52.962;5.790;2022-09-12T13:39:12;8.23;;;4.20;;
62256;SDS011;48240;52.962;5.790;2022-09-12T13:41:20;7.63;;;4.88;;
62256;SDS011;48240;52.962;5.790;2022-09-12T13:43:48;4.65;;;4.00;;
62256;SDS011;48240;52.962;5.790;2022-09-12T13:46:16;5.47;;;4.30;;
62256;SDS011;48240;52.962;5.790;2022-09-12T13:48:43;4.20;;;3.78;;
62256;SDS011;48240;52.962;5.790;2022-09-12T13:51:18;6.90;;;4.03;;
62256;SDS011;48240;52.962;5.790;2022-09-12T13:53:46;7.05;;;4.20;;
62256;SDS011;48240;52.962;5.790;2022-09-12T13:56:16;5.03;;;3.88;;
62256;SDS011;48240;52.962;5.790;2022-09-12T13:58:55;6.40;;;4.10;;
62256;SDS011;48240;52.962;5.790;2022-09-12T14:01:23;4.75;;;3.88;;
62256;SDS011;48240;52.962;5.790;2022-09-12T14:03:50;5.82;;;4.47;;
62256;SDS011;48240;52.962;5.790;2022-09-12T14:06:37;5.43;;;4.13;;
62256;SDS011;48240;52.962;5.790;2022-09-12T14:09:11;7.07;;;4.22;;
62256;SDS011;48240;52.962;5.790;2022-09-12T14:11:38;4.72;;;4.13;;
62256;SDS011;48240;52.962;5.790;2022-09-12T14:14:05;4.63;;;3.83;;
62256;SDS011;48240;52.962;5.790;2022-09-12T14:16:32;5.32;;;4.40;;
62256;SDS011;48240;52.962;5.790;2022-09-12T14:19:03;5.35;;;4.22;;
62256;SDS011;48240;52.962;5.790;2022-09-12T14:21:33;5.97;;;4.32;;
62256;SDS011;48240;52.962;5.790;2022-09-12T14:24:00;6.90;;;4.40;;
62256;SDS011;48240;52.962;5.790;2022-09-12T14:26:29;6.43;;;4.75;;
62256;SDS011;48240;52.962;5.790;2022-09-12T14:28:57;21.55;;;4.30;;
62256;SDS011;48240;52.962;5.790;2022-09-12T14:31:27;8.60;;;3.80;;
62256;SDS011;48240;52.962;5.790;2022-09-12T14:39:06;5.65;;;4.13;;
62256;SDS011;48240;52.962;5.790;2022-09-12T14:41:39;5.55;;;4.10;;
62256;SDS011;48240;52.962;5.790;2022-09-12T14:44:14;10.77;;;5.05;;
62256;SDS011;48240;52.962;5.790;2022-09-12T14:46:43;22.17;;;7.68;;
62256;SDS011;48240;52.962;5.790;2022-09-12T14:51:40;29.02;;;9.93;;
62256;SDS011;48240;52.962;5.790;2022-09-12T14:54:32;22.85;;;9.30;;
62256;SDS011;48240;52.962;5.790;2022-09-12T14:56:58;26.05;;;9.70;;
62256;SDS011;48240;52.962;5.790;2022-09-12T14:59:26;23.40;;;8.25;;
62256;SDS011;48240;52.962;5.790;2022-09-12T15:04:42;18.35;;;7.60;;
62256;SDS011;48240;52.962;5.790;2022-09-12T15:07:29;15.40;;;7.75;;
62256;SDS011;48240;52.962;5.790;2022-09-12T15:09:57;9.73;;;6.10;;
62256;SDS011;48240;52.962;5.790;2022-09-12T15:12:24;12.70;;;6.15;;
62256;SDS011;48240;52.962;5.790;2022-09-12T15:14:50;14.15;;;7.05;;
62256;SDS011;48240;52.962;5.790;2022-09-12T15:17:16;12.02;;;6.20;;
62256;SDS011;48240;52.962;5.790;2022-09-12T15:19:42;9.40;;;5.22;;
62256;SDS011;48240;52.962;5.790;2022-09-12T15:22:11;11.82;;;5.80;;
62256;SDS011;48240;52.962;5.790;2022-09-12T15:24:38;9.48;;;6.13;;
62256;SDS011;48240;52.962;5.790;2022-09-12T15:27:13;9.77;;;5.40;;
62256;SDS011;48240;52.962;5.790;2022-09-12T15:29:39;6.97;;;5.20;;
62256;SDS011;48240;52.962;5.790;2022-09-12T15:32:08;12.05;;;5.93;;
62256;SDS011;48240;52.962;5.790;2022-09-12T15:34:38;8.57;;;5.15;;
62256;SDS011;48240;52.962;5.790;2022-09-12T15:37:08;9.77;;;5.68;;
62256;SDS011;48240;52.962;5.790;2022-09-12T15:39:38;8.98;;;5.30;;
62256;SDS011;48240;52.962;5.790;2022-09-12T15:42:04;11.55;;;5.53;;
62256;SDS011;48240;52.962;5.790;2022-09-12T15:44:30;8.23;;;5.45;;
62256;SDS011;48240;52.962;5.790;2022-09-12T15:46:56;9.05;;;5.60;;
62256;SDS011;48240;52.962;5.790;2022-09-12T15:49:22;8.75;;;4.95;;
62256;SDS011;48240;52.962;5.790;2022-09-12T15:51:48;5.95;;;4.55;;
62256;SDS011;48240;52.962;5.790;2022-09-12T15:54:14;11.70;;;4.97;;
62256;SDS011;48240;52.962;5.790;2022-09-12T15:56:41;7.18;;;4.70;;
62256;SDS011;48240;52.962;5.790;2022-09-12T15:59:08;6.00;;;4.50;;
62256;SDS011;48240;52.962;5.790;2022-09-12T16:01:34;5.82;;;4.90;;
62256;SDS011;48240;52.962;5.790;2022-09-12T16:04:00;7.65;;;4.63;;
62256;SDS011;48240;52.962;5.790;2022-09-12T16:06:27;6.45;;;4.60;;
62256;SDS011;48240;52.962;5.790;2022-09-12T16:08:55;7.18;;;4.72;;
62256;SDS011;48240;52.962;5.790;2022-09-12T16:11:24;5.80;;;4.50;;
62256;SDS011;48240;52.962;5.790;2022-09-12T16:13:51;7.40;;;5.18;;
62256;SDS011;48240;52.962;5.790;2022-09-12T16:16:18;8.20;;;4.53;;
62256;SDS011;48240;52.962;5.790;2022-09-12T16:18:44;7.63;;;4.55;;
62256;SDS011;48240;52.962;5.790;2022-09-12T16:21:10;7.50;;;4.80;;
62256;SDS011;48240;52.962;5.790;2022-09-12T16:23:36;5.18;;;4.20;;
62256;SDS011;48240;52.962;5.790;2022-09-12T16:26:04;6.40;;;4.78;;
62256;SDS011;48240;52.962;5.790;2022-09-12T16:28:31;4.80;;;3.97;;
62256;SDS011;48240;52.962;5.790;2022-09-12T16:30:58;6.10;;;4.30;;
62256;SDS011;48240;52.962;5.790;2022-09-12T16:33:25;4.82;;;4.35;;
62256;SDS011;48240;52.962;5.790;2022-09-12T16:35:51;6.05;;;4.30;;
62256;SDS011;48240;52.962;5.790;2022-09-12T16:38:20;7.15;;;4.60;;
62256;SDS011;48240;52.962;5.790;2022-09-12T16:40:47;5.30;;;3.88;;
62256;SDS011;48240;52.962;5.790;2022-09-12T16:43:13;4.15;;;3.72;;
62256;SDS011;48240;52.962;5.790;2022-09-12T16:45:42;4.75;;;3.83;;
62256;SDS011;48240;52.962;5.790;2022-09-12T16:48:08;6.75;;;4.03;;
62256;SDS011;48240;52.962;5.790;2022-09-12T16:50:34;6.68;;;4.07;;
62256;SDS011;48240;52.962;5.790;2022-09-12T16:53:00;7.15;;;4.50;;
62256;SDS011;48240;52.962;5.790;2022-09-12T16:55:26;4.43;;;3.90;;
62256;SDS011;48240;52.962;5.790;2022-09-12T16:57:53;4.60;;;4.15;;
62256;SDS011;48240;52.962;5.790;2022-09-12T17:00:19;6.15;;;3.80;;
62256;SDS011;48240;52.962;5.790;2022-09-12T17:02:45;8.32;;;4.30;;
62256;SDS011;48240;52.962;5.790;2022-09-12T17:05:12;8.13;;;3.80;;
62256;SDS011;48240;52.962;5.790;2022-09-12T17:07:40;4.40;;;4.00;;
62256;SDS011;48240;52.962;5.790;2022-09-12T17:10:06;5.18;;;3.45;;
62256;SDS011;48240;52.962;5.790;2022-09-12T17:12:32;9.32;;;4.07;;
62256;SDS011;48240;52.962;5.790;2022-09-12T17:14:58;5.78;;;3.70;;
62256;SDS011;48240;52.962;5.790;2022-09-12T17:17:25;7.10;;;3.83;;
62256;SDS011;48240;52.962;5.790;2022-09-12T17:19:51;6.13;;;3.97;;
62256;SDS011;48240;52.962;5.790;2022-09-12T17:22:17;4.40;;;4.00;;
62256;SDS011;48240;52.962;5.790;2022-09-12T17:24:43;5.25;;;3.70;;
62256;SDS011;48240;52.962;5.790;2022-09-12T17:27:09;5.53;;;4.07;;
62256;SDS011;48240;52.962;5.790;2022-09-12T17:29:36;6.18;;;4.32;;
62256;SDS011;48240;52.962;5.790;2022-09-12T17:32:02;4.43;;;3.67;;
62256;SDS011;48240;52.962;5.790;2022-09-12T17:34:28;4.15;;;3.75;;
62256;SDS011;48240;52.962;5.790;2022-09-12T17:36:55;4.10;;;3.70;;
62256;SDS011;48240;52.962;5.790;2022-09-12T17:39:21;4.97;;;3.78;;
62256;SDS011;48240;52.962;5.790;2022-09-12T17:41:47;5.82;;;4.30;;
62256;SDS011;48240;52.962;5.790;2022-09-12T17:44:15;5.32;;;3.75;;
62256;SDS011;48240;52.962;5.790;2022-09-12T17:46:43;5.05;;;4.07;;
62256;SDS011;48240;52.962;5.790;2022-09-12T17:49:11;5.75;;;4.10;;
62256;SDS011;48240;52.962;5.790;2022-09-12T17:51:37;4.63;;;3.90;;
62256;SDS011;48240;52.962;5.790;2022-09-12T17:54:14;5.75;;;4.10;;
62256;SDS011;48240;52.962;5.790;2022-09-12T17:56:41;4.65;;;4.00;;
62256;SDS011;48240;52.962;5.790;2022-09-12T17:59:09;4.43;;;3.80;;
62256;SDS011;48240;52.962;5.790;2022-09-12T18:01:37;6.35;;;4.47;;
62256;SDS011;48240;52.962;5.790;2022-09-12T18:04:22;4.15;;;3.75;;
62256;SDS011;48240;52.962;5.790;2022-09-12T18:06:48;6.03;;;4.30;;
62256;SDS011;48240;52.962;5.790;2022-09-12T18:09:16;5.38;;;4.43;;
62256;SDS011;48240;52.962;5.790;2022-09-12T18:11:43;6.68;;;4.28;;
62256;SDS011;48240;52.962;5.790;2022-09-12T18:14:09;9.98;;;4.22;;
62256;SDS011;48240;52.962;5.790;2022-09-12T18:16:36;4.80;;;4.13;;
62256;SDS011;48240;52.962;5.790;2022-09-12T18:19:02;5.10;;;4.40;;
62256;SDS011;48240;52.962;5.790;2022-09-12T18:21:28;4.28;;;3.30;;
62256;SDS011;48240;52.962;5.790;2022-09-12T18:23:55;4.95;;;3.80;;
62256;SDS011;48240;52.962;5.790;2022-09-12T18:26:23;5.43;;;3.80;;
62256;SDS011;48240;52.962;5.790;2022-09-12T18:28:49;4.50;;;4.03;;
62256;SDS011;48240;52.962;5.790;2022-09-12T18:31:15;5.07;;;3.72;;
62256;SDS011;48240;52.962;5.790;2022-09-12T18:33:42;6.43;;;4.43;;
62256;SDS011;48240;52.962;5.790;2022-09-12T18:36:09;7.93;;;4.53;;
62256;SDS011;48240;52.962;5.790;2022-09-12T18:38:36;5.43;;;4.32;;
62256;SDS011;48240;52.962;5.790;2022-09-12T18:43:29;5.15;;;4.15;;
62256;SDS011;48240;52.962;5.790;2022-09-12T18:45:55;8.98;;;3.92;;
62256;SDS011;48240;52.962;5.790;2022-09-12T18:48:22;5.70;;;3.88;;
62256;SDS011;48240;52.962;5.790;2022-09-12T18:50:48;4.60;;;4.03;;
62256;SDS011;48240;52.962;5.790;2022-09-12T18:53:14;4.93;;;3.95;;
62256;SDS011;48240;52.962;5.790;2022-09-12T18:55:40;7.07;;;3.83;;
62256;SDS011;48240;52.962;5.790;2022-09-12T18:58:06;8.30;;;4.50;;
62256;SDS011;48240;52.962;5.790;2022-09-12T19:00:32;4.70;;;4.18;;
62256;SDS011;48240;52.962;5.790;2022-09-12T19:02:58;5.82;;;4.13;;
62256;SDS011;48240;52.962;5.790;2022-09-12T19:05:24;4.80;;;3.85;;
62256;SDS011;48240;52.962;5.790;2022-09-12T19:07:50;4.32;;;3.92;;
62256;SDS011;48240;52.962;5.790;2022-09-12T19:10:16;6.50;;;4.07;;
62256;SDS011;48240;52.962;5.790;2022-09-12T19:12:43;5.20;;;3.97;;
62256;SDS011;48240;52.962;5.790;2022-09-12T19:15:09;5.88;;;3.90;;
62256;SDS011;48240;52.962;5.790;2022-09-12T19:17:35;6.43;;;3.80;;
62256;SDS011;48240;52.962;5.790;2022-09-12T19:20:02;5.90;;;3.88;;
62256;SDS011;48240;52.962;5.790;2022-09-12T19:22:28;8.15;;;4.72;;
62256;SDS011;48240;52.962;5.790;2022-09-12T19:24:54;7.35;;;4.53;;
62256;SDS011;48240;52.962;5.790;2022-09-12T19:27:21;8.20;;;4.18;;
62256;SDS011;48240;52.962;5.790;2022-09-12T19:29:47;5.78;;;4.10;;
62256;SDS011;48240;52.962;5.790;2022-09-12T19:32:13;4.68;;;4.28;;
62256;SDS011;48240;52.962;5.790;2022-09-12T19:34:39;6.25;;;4.35;;
62256;SDS011;48240;52.962;5.790;2022-09-12T19:37:05;4.40;;;4.00;;
62256;SDS011;48240;52.962;5.790;2022-09-12T19:39:31;7.28;;;4.13;;
62256;SDS011;48240;52.962;5.790;2022-09-12T19:41:58;6.28;;;3.83;;
62256;SDS011;48240;52.962;5.790;2022-09-12T19:44:24;7.00;;;4.15;;
62256;SDS011;48240;52.962;5.790;2022-09-12T19:46:51;4.47;;;3.90;;
62256;SDS011;48240;52.962;5.790;2022-09-12T19:49:17;11.27;;;4.85;;
62256;SDS011;48240;52.962;5.790;2022-09-12T19:51:43;6.00;;;4.38;;
62256;SDS011;48240;52.962;5.790;2022-09-12T19:54:09;7.53;;;4.00;;
62256;SDS011;48240;52.962;5.790;2022-09-12T19:56:36;4.85;;;3.80;;
62256;SDS011;48240;52.962;5.790;2022-09-12T19:59:02;5.53;;;4.28;;
62256;SDS011;48240;52.962;5.790;2022-09-12T20:01:28;5.05;;;4.32;;
62256;SDS011;48240;52.962;5.790;2022-09-12T20:03:57;4.13;;;3.72;;
62256;SDS011;48240;52.962;5.790;2022-09-12T20:06:24;8.02;;;4.10;;
62256;SDS011;48240;52.962;5.790;2022-09-12T20:08:50;7.30;;;4.30;;
62256;SDS011;48240;52.962;5.790;2022-09-12T20:11:16;5.18;;;4.07;;
62256;SDS011;48240;52.962;5.790;2022-09-12T20:13:43;5.63;;;4.10;;
62256;SDS011;48240;52.962;5.790;2022-09-12T20:16:10;5.13;;;3.55;;
62256;SDS011;48240;52.962;5.790;2022-09-12T20:18:39;4.85;;;4.07;;
62256;SDS011;48240;52.962;5.790;2022-09-12T20:21:13;5.30;;;3.97;;
62256;SDS011;48240;52.962;5.790;2022-09-12T20:23:40;3.97;;;3.65;;
62256;SDS011;48240;52.962;5.790;2022-09-12T20:26:07;6.15;;;3.90;;
62256;SDS011;48240;52.962;5.790;2022-09-12T20:28:34;4.53;;;3.83;;
62256;SDS011;48240;52.962;5.790;2022-09-12T20:31:05;4.30;;;3.90;;
62256;SDS011;48240;52.962;5.790;2022-09-12T20:33:32;6.47;;;4.10;;
62256;SDS011;48240;52.962;5.790;2022-09-12T20:36:02;6.50;;;3.70;;
62256;SDS011;48240;52.962;5.790;2022-09-12T20:38:28;5.37;;;4.57;;
62256;SDS011;48240;52.962;5.790;2022-09-12T20:40:54;5.20;;;4.65;;
62256;SDS011;48240;52.962;5.790;2022-09-12T20:43:20;8.07;;;4.35;;
62256;SDS011;48240;52.962;5.790;2022-09-12T20:45:46;7.50;;;4.20;;
62256;SDS011;48240;52.962;5.790;2022-09-12T20:48:12;4.88;;;4.47;;
62256;SDS011;48240;52.962;5.790;2022-09-12T20:50:38;8.13;;;4.30;;
62256;SDS011;48240;52.962;5.790;2022-09-12T20:53:05;7.40;;;4.25;;
62256;SDS011;48240;52.962;5.790;2022-09-12T20:55:31;4.47;;;3.97;;
62256;SDS011;48240;52.962;5.790;2022-09-12T20:57:57;5.00;;;4.50;;
62256;SDS011;48240;52.962;5.790;2022-09-12T21:00:23;8.90;;;4.60;;
62256;SDS011;48240;52.962;5.790;2022-09-12T21:02:50;5.22;;;4.72;;
62256;SDS011;48240;52.962;5.790;2022-09-12T21:05:16;5.00;;;4.40;;
62256;SDS011;48240;52.962;5.790;2022-09-12T21:07:42;7.70;;;4.43;;
62256;SDS011;48240;52.962;5.790;2022-09-12T21:10:08;7.95;;;4.60;;
62256;SDS011;48240;52.962;5.790;2022-09-12T21:12:35;6.03;;;4.85;;
62256;SDS011;48240;52.962;5.790;2022-09-12T21:15:01;6.30;;;4.50;;
62256;SDS011;48240;52.962;5.790;2022-09-12T21:17:28;7.22;;;4.50;;
62256;SDS011;48240;52.962;5.790;2022-09-12T21:19:54;5.18;;;4.68;;
62256;SDS011;48240;52.962;5.790;2022-09-12T21:22:20;6.18;;;4.97;;
62256;SDS011;48240;52.962;5.790;2022-09-12T21:24:46;7.07;;;4.72;;